createdAt,value
2022-08-28T00:00:38.096Z,101420.78
2022-08-28T00:03:06.944Z,101420.66
2022-08-28T00:05:36.396Z,101414.53
2022-08-28T00:08:04.839Z,101414.44
2022-08-28T00:10:34.073Z,101421.81
2022-08-28T00:13:02.410Z,101417.94
2022-08-28T00:15:33.793Z,101416.72
2022-08-28T00:18:03.593Z,101412.50
2022-08-28T00:20:32.674Z,101412.09
2022-08-28T00:23:02.786Z,101414.84
2022-08-28T00:25:31.912Z,101415.13
2022-08-28T00:28:10.475Z,101420.31
2022-08-28T00:30:41.063Z,101420.47
2022-08-28T00:33:11.994Z,101424.44
2022-08-28T00:35:41.704Z,101428.78
2022-08-28T00:38:12.728Z,101426.31
2022-08-28T00:40:44.202Z,101430.69
2022-08-28T00:43:23.294Z,101432.91
2022-08-28T00:45:51.401Z,101436.28
2022-08-28T00:48:19.701Z,101433.66
2022-08-28T00:51:05.378Z,101434.53
2022-08-28T00:53:34.762Z,101430.09
2022-08-28T00:56:07.065Z,101434.44
2022-08-28T00:58:44.574Z,101426.59
2022-08-28T01:01:14.157Z,101428.59
2022-08-28T01:03:43.125Z,101424.50
2022-08-28T01:06:12.845Z,101428.34
2022-08-28T01:08:45.329Z,101430.72
2022-08-28T01:11:19.962Z,101430.84
2022-08-28T01:13:49.496Z,101436.53
2022-08-28T01:16:19.022Z,101440.53
2022-08-28T01:18:47.786Z,101435.28
2022-08-28T01:21:23.833Z,101435.06
2022-08-28T01:23:58.057Z,101443.75
2022-08-28T01:26:27.710Z,101448.09
2022-08-28T01:28:55.895Z,101441.63
2022-08-28T01:31:25.034Z,101434.81
2022-08-28T01:33:53.372Z,101443.25
2022-08-28T01:36:22.481Z,101442.47
2022-08-28T01:38:58.976Z,101440.50
2022-08-28T01:41:26.861Z,101444.00
2022-08-28T01:43:54.779Z,101444.38
2022-08-28T01:46:22.901Z,101436.28
2022-08-28T01:48:50.885Z,101438.75
2022-08-28T01:51:24.401Z,101440.78
2022-08-28T01:53:52.951Z,101452.19
2022-08-28T01:56:22.289Z,101441.38
2022-08-28T01:58:50.773Z,101438.78
2022-08-28T02:01:21.451Z,101431.09
2022-08-28T02:03:52.916Z,101431.59
2022-08-28T02:06:21.518Z,101440.25
2022-08-28T02:08:55.185Z,101430.97
2022-08-28T02:11:25.975Z,101433.56
2022-08-28T02:13:56.378Z,101434.28
2022-08-28T02:16:24.710Z,101439.88
2022-08-28T02:18:53.078Z,101437.28
2022-08-28T02:21:21.564Z,101435.06
2022-08-28T02:23:49.553Z,101444.34
2022-08-28T02:26:17.546Z,101446.31
2022-08-28T02:28:46.859Z,101442.69
2022-08-28T02:31:15.591Z,101443.72
2022-08-28T02:33:45.876Z,101446.94
2022-08-28T02:36:15.685Z,101452.75
2022-08-28T02:38:44.717Z,101458.59
2022-08-28T02:41:13.476Z,101454.13
2022-08-28T02:43:41.905Z,101455.38
2022-08-28T02:46:11.537Z,101451.91
2022-08-28T02:48:41.432Z,101454.22
2022-08-28T02:51:13.932Z,101459.81
2022-08-28T02:53:43.163Z,101459.53
2022-08-28T02:56:11.929Z,101455.00
2022-08-28T02:58:40.963Z,101456.03
2022-08-28T03:01:13.450Z,101454.44
2022-08-28T03:03:43.119Z,101447.56
2022-08-28T03:06:12.866Z,101446.75
2022-08-28T03:08:41.597Z,101446.81
2022-08-28T03:11:10.057Z,101459.81
2022-08-28T03:13:37.918Z,101449.44
2022-08-28T03:16:06.020Z,101444.59
2022-08-28T03:18:35.296Z,101447.75
2022-08-28T03:21:03.281Z,101446.72
2022-08-28T03:23:30.313Z,101442.03
2022-08-28T03:26:00.607Z,101451.19
2022-08-28T03:28:30.574Z,101446.59
2022-08-28T03:30:58.831Z,101449.31
2022-08-28T03:33:30.218Z,101442.03
2022-08-28T03:35:59.893Z,101450.22
2022-08-28T03:38:33.784Z,101446.75
2022-08-28T03:41:02.324Z,101447.97
2022-08-28T03:43:31.488Z,101453.81
2022-08-28T03:46:01.142Z,101460.06
2022-08-28T03:48:31.290Z,101462.19
2022-08-28T03:51:01.299Z,101464.19
2022-08-28T03:53:30.857Z,101470.97
2022-08-28T03:55:58.856Z,101472.41
2022-08-28T03:58:27.685Z,101472.53
2022-08-28T04:00:55.732Z,101489.84
2022-08-28T04:03:23.656Z,101485.97
2022-08-28T04:05:52.158Z,101489.44
2022-08-28T04:08:23.040Z,101480.94
2022-08-28T04:10:52.763Z,101482.28
2022-08-28T04:13:22.669Z,101478.34
2022-08-28T04:15:58.579Z,101482.16
2022-08-28T04:18:27.375Z,101486.25
2022-08-28T04:21:00.270Z,101489.56
2022-08-28T04:23:29.706Z,101496.53
2022-08-28T04:25:58.470Z,101486.25
2022-08-28T04:28:26.907Z,101499.88
2022-08-28T04:30:56.261Z,101496.63
2022-08-28T04:33:24.787Z,101497.31
2022-08-28T04:35:52.870Z,101507.13
2022-08-28T04:38:21.476Z,101505.25
2022-08-28T04:40:50.820Z,101505.72
2022-08-28T04:43:18.747Z,101511.09
2022-08-28T04:45:47.122Z,101508.53
2022-08-28T04:48:15.743Z,101505.69
2022-08-28T04:50:45.303Z,101506.91
2022-08-28T04:53:13.925Z,101516.28
2022-08-28T04:55:52.328Z,101514.44
2022-08-28T04:58:24.543Z,101524.47
2022-08-28T05:00:54.125Z,101521.72
2022-08-28T05:03:22.495Z,101517.28
2022-08-28T05:05:52.478Z,101515.53
2022-08-28T05:08:22.989Z,101523.19
2022-08-28T05:10:51.076Z,101510.34
2022-08-28T05:13:19.220Z,101523.09
2022-08-28T05:15:51.219Z,101529.59
2022-08-28T05:18:22.455Z,101533.28
2022-08-28T05:20:50.341Z,101525.97
2022-08-28T05:23:18.244Z,101535.88
2022-08-28T05:25:48.614Z,101536.97
2022-08-28T05:28:17.955Z,101544.38
2022-08-28T05:30:46.511Z,101548.06
2022-08-28T05:33:17.001Z,101548.94
2022-08-28T05:35:47.635Z,101547.69
2022-08-28T05:38:17.253Z,101541.78
2022-08-28T05:40:46.608Z,101542.06
2022-08-28T05:43:16.045Z,101548.06
2022-08-28T05:45:44.571Z,101547.75
2022-08-28T05:48:16.276Z,101552.75
2022-08-28T05:50:47.314Z,101553.94
2022-08-28T05:53:17.666Z,101556.03
2022-08-28T05:55:51.657Z,101555.72
2022-08-28T05:58:34.695Z,101559.06
2022-08-28T06:01:11.604Z,101556.78
2022-08-28T06:03:41.171Z,101563.00
2022-08-28T06:06:11.802Z,101560.22
2022-08-28T06:08:58.324Z,101565.41
2022-08-28T06:11:30.474Z,101565.84
2022-08-28T06:14:02.595Z,101568.84
2022-08-28T06:16:32.553Z,101567.88
2022-08-28T06:19:01.567Z,101567.44
2022-08-28T06:21:31.565Z,101567.00
2022-08-28T06:23:59.910Z,101575.00
2022-08-28T06:26:28.019Z,101576.84
2022-08-28T06:29:00.732Z,101579.94
2022-08-28T06:31:33.269Z,101573.50
2022-08-28T06:34:02.549Z,101580.00
2022-08-28T06:36:34.544Z,101580.06
2022-08-28T06:39:05.320Z,101587.50
2022-08-28T06:41:35.592Z,101581.97
2022-08-28T06:44:04.416Z,101588.44
2022-08-28T06:46:34.584Z,101593.75
2022-08-28T06:49:06.282Z,101597.34
2022-08-28T06:51:36.696Z,101586.84
2022-08-28T06:54:05.197Z,101597.56
2022-08-28T06:56:34.291Z,101598.56
2022-08-28T06:59:11.340Z,101594.91
2022-08-28T07:01:39.601Z,101606.97
2022-08-28T07:04:10.548Z,101599.31
2022-08-28T07:06:43.231Z,101603.97
2022-08-28T07:09:12.240Z,101598.44
2022-08-28T07:11:41.095Z,101604.03
2022-08-28T07:14:09.882Z,101605.88
2022-08-28T07:16:39.980Z,101606.88
2022-08-28T07:19:10.626Z,101610.44
2022-08-28T07:21:42.747Z,101618.47
2022-08-28T07:24:12.960Z,101610.72
2022-08-28T07:26:42.260Z,101614.66
2022-08-28T07:29:11.686Z,101617.38
2022-08-28T07:31:41.769Z,101624.72
2022-08-28T07:34:10.836Z,101622.06
2022-08-28T07:36:41.394Z,101619.16
2022-08-28T07:39:10.608Z,101623.53
2022-08-28T07:41:42.369Z,101614.94
2022-08-28T07:44:30.281Z,101626.91
2022-08-28T07:47:00.978Z,101628.25
2022-08-28T07:49:33.849Z,101624.91
2022-08-28T07:52:04.836Z,101634.44
2022-08-28T07:54:33.126Z,101639.81
2022-08-28T07:57:02.735Z,101643.91
2022-08-28T07:59:36.867Z,101635.13
2022-08-28T08:02:05.910Z,101634.66
2022-08-28T08:04:35.158Z,101642.84
2022-08-28T08:07:07.819Z,101645.81
2022-08-28T08:09:39.040Z,101643.06
2022-08-28T08:12:23.607Z,101644.56
2022-08-28T08:14:53.127Z,101650.34
2022-08-28T08:17:21.378Z,101636.38
2022-08-28T08:19:49.500Z,101643.31
2022-08-28T08:22:19.172Z,101649.19
2022-08-28T08:24:47.477Z,101640.56
2022-08-28T08:27:16.590Z,101646.44
2022-08-28T08:29:44.727Z,101646.81
2022-08-28T08:32:13.672Z,101659.38
2022-08-28T08:34:43.279Z,101659.88
2022-08-28T08:37:13.658Z,101657.50
2022-08-28T08:39:44.246Z,101651.91
2022-08-28T08:42:24.115Z,101656.00
2022-08-28T08:44:54.084Z,101666.91
2022-08-28T08:47:27.401Z,101653.66
2022-08-28T08:49:58.536Z,101661.34
2022-08-28T08:52:38.990Z,101657.00
2022-08-28T08:55:23.127Z,101661.72
2022-08-28T08:57:57.204Z,101657.00
2022-08-28T09:00:26.207Z,101664.72
2022-08-28T09:03:01.875Z,101662.09
2022-08-28T09:05:41.682Z,101659.50
2022-08-28T09:08:17.358Z,101659.84
2022-08-28T09:10:54.662Z,101663.84
2022-08-28T09:13:36.440Z,101658.91
2022-08-28T09:16:16.509Z,101666.44
2022-08-28T09:18:45.374Z,101667.03
2022-08-28T09:21:29.031Z,101659.50
2022-08-28T09:24:05.765Z,101673.16
2022-08-28T09:26:36.892Z,101662.19
2022-08-28T09:29:13.009Z,101664.44
2022-08-28T09:31:41.938Z,101651.28
2022-08-28T09:34:30.144Z,101666.69
2022-08-28T09:36:59.891Z,101659.50
2022-08-28T09:39:30.303Z,101665.91
2022-08-28T09:42:34.800Z,101662.41
2022-08-28T09:45:09.008Z,101667.16
2022-08-28T09:47:46.364Z,101665.16
2022-08-28T09:50:41.732Z,101667.75
2022-08-28T09:53:20.896Z,101667.13
2022-08-28T09:56:01.051Z,101670.97
2022-08-28T09:58:35.525Z,101674.03
2022-08-28T10:01:11.274Z,101673.22
2022-08-28T10:03:49.205Z,101671.69
2022-08-28T10:06:26.412Z,101663.50
2022-08-28T10:09:07.271Z,101661.69
2022-08-28T10:11:50.718Z,101663.88
2022-08-28T10:14:37.275Z,101661.78
2022-08-28T10:17:21.652Z,101656.94
2022-08-28T10:19:59.715Z,101664.97
2022-08-28T10:22:39.341Z,101656.91
2022-08-28T10:25:24.057Z,101656.94
2022-08-28T10:28:05.310Z,101659.75
2022-08-28T10:30:39.655Z,101658.75
2022-08-28T10:33:24.310Z,101654.34
2022-08-28T10:35:57.291Z,101654.44
2022-08-28T10:38:37.881Z,101653.25
2022-08-28T10:41:11.649Z,101649.56
2022-08-28T10:43:45.204Z,101660.53
2022-08-28T10:46:27.070Z,101655.13
2022-08-28T10:48:59.498Z,101652.75
2022-08-28T10:51:36.900Z,101652.44
2022-08-28T10:54:21.416Z,101643.34
2022-08-28T10:56:57.030Z,101654.66
2022-08-28T10:59:27.545Z,101662.69
2022-08-28T11:01:57.337Z,101655.53
2022-08-28T11:04:29.310Z,101656.25
2022-08-28T11:07:01.339Z,101651.81
2022-08-28T11:09:36.387Z,101648.91
2022-08-28T11:12:09.739Z,101646.94
2022-08-28T11:14:48.024Z,101647.06
2022-08-28T11:17:40.411Z,101648.03
2022-08-28T11:20:18.207Z,101652.81
2022-08-28T11:22:51.049Z,101659.97
2022-08-28T11:25:26.264Z,101657.91
2022-08-28T11:28:15.457Z,101659.28
2022-08-28T11:30:45.798Z,101663.28
2022-08-28T11:33:38.710Z,101659.50
2022-08-28T11:36:11.948Z,101653.09
2022-08-28T11:39:20.167Z,101666.09
2022-08-28T11:42:32.188Z,101652.69
2022-08-28T11:45:01.189Z,101658.84
2022-08-28T11:47:46.929Z,101654.50
2022-08-28T11:50:22.802Z,101645.00
2022-08-28T11:53:21.801Z,101654.41
2022-08-28T11:56:30.502Z,101649.34
2022-08-28T11:59:12.487Z,101652.41
2022-08-28T12:01:40.810Z,101647.94
2022-08-28T12:04:13.299Z,101645.47
2022-08-28T12:06:55.840Z,101639.19
2022-08-28T12:09:41.827Z,101640.63
2022-08-28T12:12:15.027Z,101644.25
2022-08-28T12:15:24.750Z,101643.69
2022-08-28T12:17:55.758Z,101637.47
2022-08-28T12:21:06.171Z,101641.78
2022-08-28T12:23:44.870Z,101645.25
2022-08-28T12:26:23.168Z,101647.72
2022-08-28T12:28:53.919Z,101649.63
2022-08-28T12:32:04.943Z,101631.72
2022-08-28T12:34:44.441Z,101628.78
2022-08-28T12:37:28.994Z,101630.78
2022-08-28T12:40:06.297Z,101628.19
2022-08-28T12:42:38.946Z,101627.00
2022-08-28T12:45:09.716Z,101622.06
2022-08-28T12:47:38.971Z,101623.13
2022-08-28T12:50:26.532Z,101616.56
2022-08-28T12:52:56.786Z,101633.44
2022-08-28T12:55:26.617Z,101624.66
2022-08-28T12:57:55.276Z,101628.91
2022-08-28T13:00:26.093Z,101624.31
2022-08-28T13:02:56.710Z,101616.44
2022-08-28T13:05:31.814Z,101620.44
2022-08-28T13:08:02.591Z,101626.28
2022-08-28T13:10:35.204Z,101616.41
2022-08-28T13:13:07.370Z,101623.72
2022-08-28T13:15:51.543Z,101618.38
2022-08-28T13:18:50.365Z,101619.00
2022-08-28T13:21:41.602Z,101614.34
2022-08-28T13:24:42.273Z,101607.91
2022-08-28T13:27:20.594Z,101614.91
2022-08-28T13:30:23.687Z,101616.97
2022-08-28T13:32:58.073Z,101617.28
2022-08-28T13:35:46.827Z,101599.59
2022-08-28T13:38:16.807Z,101601.69
2022-08-28T13:40:58.472Z,101602.97
2022-08-28T13:43:31.392Z,101600.34
2022-08-28T13:45:59.461Z,101599.34
2022-08-28T13:48:28.823Z,101601.88
2022-08-28T13:51:03.117Z,101610.28
2022-08-28T13:53:33.421Z,101608.78
2022-08-28T13:56:01.481Z,101596.69
2022-08-28T13:58:31.916Z,101595.50
2022-08-28T14:01:00.290Z,101593.34
2022-08-28T14:03:37.485Z,101598.19
2022-08-28T14:06:09.171Z,101592.81
2022-08-28T14:08:37.057Z,101592.97
2022-08-28T14:11:07.103Z,101590.69
2022-08-28T14:13:36.335Z,101589.03
2022-08-28T14:16:06.259Z,101581.91
2022-08-28T14:18:34.858Z,101584.56
2022-08-28T14:21:05.822Z,101585.53
2022-08-28T14:23:34.388Z,101575.69
2022-08-28T14:26:05.148Z,101578.28
2022-08-28T14:28:33.496Z,101572.19
2022-08-28T14:31:09.034Z,101577.22
2022-08-28T14:33:40.320Z,101579.72
2022-08-28T14:36:16.297Z,101576.78
2022-08-28T14:38:44.250Z,101572.69
2022-08-28T14:41:12.189Z,101576.19
2022-08-28T14:43:40.078Z,101577.69
2022-08-28T14:46:11.678Z,101572.78
2022-08-28T14:48:39.931Z,101568.50
2022-08-28T14:51:07.884Z,101571.50
2022-08-28T14:53:35.959Z,101566.22
2022-08-28T14:56:07.577Z,101559.41
2022-08-28T14:58:36.289Z,101562.13
2022-08-28T15:01:06.091Z,101565.53
2022-08-28T15:03:35.895Z,101565.44
2022-08-28T15:06:06.237Z,101573.38
2022-08-28T15:08:35.241Z,101578.44
2022-08-28T15:11:07.153Z,101571.94
2022-08-28T15:13:35.437Z,101569.63
2022-08-28T15:16:05.565Z,101572.94
2022-08-28T15:18:46.036Z,101571.25
2022-08-28T15:21:18.112Z,101578.09
2022-08-28T15:23:46.216Z,101577.41
2022-08-28T15:26:15.499Z,101564.34
2022-08-28T15:28:43.715Z,101577.97
2022-08-28T15:31:11.666Z,101578.97
2022-08-28T15:33:44.623Z,101569.84
2022-08-28T15:36:14.661Z,101573.38
2022-08-28T15:38:59.879Z,101571.25
2022-08-28T15:41:29.286Z,101559.00
2022-08-28T15:44:00.037Z,101568.59
2022-08-28T15:46:29.708Z,101565.44
2022-08-28T15:48:58.658Z,101558.59
2022-08-28T15:51:28.959Z,101563.16
2022-08-28T15:53:57.076Z,101564.41
2022-08-28T15:56:25.430Z,101559.94
2022-08-28T15:58:53.962Z,101559.00
2022-08-28T16:01:23.358Z,101545.31
2022-08-28T16:03:51.362Z,101561.59
2022-08-28T16:06:21.678Z,101567.66
2022-08-28T16:08:51.212Z,101552.56
2022-08-28T16:11:22.936Z,101555.38
2022-08-28T16:13:51.867Z,101550.69
2022-08-28T16:16:19.994Z,101560.34
2022-08-28T16:18:48.496Z,101555.38
2022-08-28T16:21:17.077Z,101554.13
2022-08-28T16:23:45.190Z,101555.53
2022-08-28T16:26:15.952Z,101554.72
2022-08-28T16:28:44.690Z,101557.97
2022-08-28T16:31:20.573Z,101552.16
2022-08-28T16:33:49.799Z,101555.91
2022-08-28T16:36:18.608Z,101563.91
2022-08-28T16:38:59.624Z,101556.53
2022-08-28T16:41:33.501Z,101565.13
2022-08-28T16:44:01.488Z,101558.78
2022-08-28T16:46:29.898Z,101562.06
2022-08-28T16:48:59.567Z,101555.16
2022-08-28T16:51:28.056Z,101547.59
2022-08-28T16:53:56.427Z,101552.31
2022-08-28T16:56:25.307Z,101554.06
2022-08-28T16:58:54.782Z,101542.31
2022-08-28T17:01:24.166Z,101551.78
2022-08-28T17:03:54.499Z,101553.66
2022-08-28T17:06:25.923Z,101548.75
2022-08-28T17:08:57.145Z,101548.81
2022-08-28T17:11:26.136Z,101551.97
2022-08-28T17:13:56.386Z,101553.19
2022-08-28T17:16:25.954Z,101541.19
2022-08-28T17:18:54.065Z,101546.78
2022-08-28T17:21:39.993Z,101552.50
2022-08-28T17:24:08.501Z,101557.13
2022-08-28T17:26:36.520Z,101557.41
2022-08-28T17:29:05.999Z,101564.22
2022-08-28T17:31:34.266Z,101556.69
2022-08-28T17:34:02.226Z,101560.78
2022-08-28T17:36:33.483Z,101556.00
2022-08-28T17:39:03.260Z,101557.28
2022-08-28T17:41:31.612Z,101560.22
2022-08-28T17:44:01.407Z,101563.22
2022-08-28T17:46:35.292Z,101562.78
2022-08-28T17:49:06.599Z,101565.75
2022-08-28T17:51:43.820Z,101566.66
2022-08-28T17:54:13.037Z,101581.72
2022-08-28T17:56:41.238Z,101576.06
2022-08-28T17:59:09.495Z,101577.09
2022-08-28T18:01:39.123Z,101582.38
2022-08-28T18:04:07.590Z,101583.16
2022-08-28T18:06:36.122Z,101578.25
2022-08-28T18:09:04.417Z,101584.34
2022-08-28T18:11:32.255Z,101588.38
2022-08-28T18:14:00.996Z,101582.91
2022-08-28T18:16:31.611Z,101587.22
2022-08-28T18:19:01.539Z,101588.97
2022-08-28T18:21:30.156Z,101582.03
2022-08-28T18:23:58.317Z,101591.16
2022-08-28T18:26:26.336Z,101585.78
2022-08-28T18:28:54.529Z,101594.44
2022-08-28T18:31:23.207Z,101605.44
2022-08-28T18:33:51.685Z,101600.81
2022-08-28T18:36:23.642Z,101610.78
2022-08-28T18:38:51.882Z,101612.50
2022-08-28T18:41:20.467Z,101615.53
2022-08-28T18:43:49.088Z,101621.00
2022-08-28T18:46:17.078Z,101616.81
2022-08-28T18:48:45.139Z,101622.22
2022-08-28T18:51:13.892Z,101626.41
2022-08-28T18:53:43.860Z,101621.50
2022-08-28T18:56:12.593Z,101625.63
2022-08-28T18:58:41.850Z,101632.91
2022-08-28T19:01:10.762Z,101633.34
2022-08-28T19:03:39.572Z,101636.28
2022-08-28T19:06:08.120Z,101636.69
2022-08-28T19:08:36.919Z,101638.09
2022-08-28T19:11:08.791Z,101644.47
2022-08-28T19:13:38.272Z,101645.56
2022-08-28T19:16:07.351Z,101655.38
2022-08-28T19:18:35.632Z,101655.78
2022-08-28T19:21:05.602Z,101656.00
2022-08-28T19:23:34.092Z,101667.69
2022-08-28T19:26:02.330Z,101656.47
2022-08-28T19:28:31.724Z,101657.09
2022-08-28T19:31:00.194Z,101664.34
2022-08-28T19:33:28.518Z,101659.56
2022-08-28T19:35:56.949Z,101660.53
2022-08-28T19:38:25.391Z,101668.66
2022-08-28T19:40:57.290Z,101670.03
2022-08-28T19:43:25.461Z,101676.13
2022-08-28T19:46:19.989Z,101675.72
2022-08-28T19:48:48.806Z,101685.06
2022-08-28T19:51:22.938Z,101691.41
2022-08-28T19:53:56.874Z,101686.44
2022-08-28T19:56:27.317Z,101691.31
2022-08-28T19:58:58.280Z,101689.09
2022-08-28T20:01:29.830Z,101689.72
2022-08-28T20:03:58.528Z,101688.97
2022-08-28T20:06:26.619Z,101682.78
2022-08-28T20:08:54.853Z,101681.00
2022-08-28T20:11:30.472Z,101689.22
2022-08-28T20:14:03.930Z,101687.53
2022-08-28T20:16:35.886Z,101692.25
2022-08-28T20:19:05.268Z,101691.47
2022-08-28T20:21:37.098Z,101694.16
2022-08-28T20:24:07.270Z,101700.31
2022-08-28T20:26:35.520Z,101705.81
2022-08-28T20:29:03.831Z,101709.16
2022-08-28T20:31:33.160Z,101709.41
2022-08-28T20:34:01.062Z,101712.03
2022-08-28T20:36:29.276Z,101709.53
2022-08-28T20:38:57.807Z,101708.66
2022-08-28T20:41:26.007Z,101714.38
2022-08-28T20:43:54.024Z,101710.66
2022-08-28T20:46:22.203Z,101716.63
2022-08-28T20:48:51.482Z,101720.84
2022-08-28T20:51:40.407Z,101715.75
2022-08-28T20:54:08.243Z,101720.59
2022-08-28T20:56:36.243Z,101724.31
2022-08-28T20:59:05.192Z,101719.94
2022-08-28T21:01:33.835Z,101730.63
2022-08-28T21:04:03.331Z,101727.53
2022-08-28T21:06:32.074Z,101731.53
2022-08-28T21:09:00.132Z,101731.00
2022-08-28T21:11:29.412Z,101730.00
2022-08-28T21:13:57.377Z,101734.84
2022-08-28T21:16:25.511Z,101736.19
2022-08-28T21:19:14.524Z,101733.09
2022-08-28T21:21:43.702Z,101738.91
2022-08-28T21:24:14.252Z,101740.88
2022-08-28T21:26:44.045Z,101743.88
2022-08-28T21:29:14.015Z,101742.13
2022-08-28T21:31:42.593Z,101747.06
2022-08-28T21:34:10.965Z,101743.50
2022-08-28T21:36:49.530Z,101749.94
2022-08-28T21:39:20.576Z,101750.50
2022-08-28T21:41:49.544Z,101752.72
2022-08-28T21:44:17.754Z,101750.34
2022-08-28T21:46:45.839Z,101753.31
2022-08-28T21:49:13.796Z,101751.84
2022-08-28T21:51:41.895Z,101749.38
2022-08-28T21:54:11.268Z,101747.63
2022-08-28T21:56:39.168Z,101754.06
2022-08-28T21:59:07.139Z,101751.63
2022-08-28T22:01:35.484Z,101763.13
2022-08-28T22:04:04.131Z,101759.97
2022-08-28T22:06:32.504Z,101762.81
2022-08-28T22:09:00.712Z,101749.31
2022-08-28T22:11:30.995Z,101749.78
2022-08-28T22:13:58.989Z,101752.81
2022-08-28T22:16:28.309Z,101750.66
2022-08-28T22:18:56.440Z,101748.06
2022-08-28T22:21:44.248Z,101742.81
2022-08-28T22:24:13.560Z,101745.00
2022-08-28T22:26:44.147Z,101751.34
2022-08-28T22:29:13.021Z,101749.81
2022-08-28T22:31:43.955Z,101757.09
2022-08-28T22:34:14.659Z,101759.19
2022-08-28T22:36:42.700Z,101751.56
2022-08-28T22:39:10.592Z,101751.00
2022-08-28T22:41:38.658Z,101745.56
2022-08-28T22:44:08.069Z,101754.81
2022-08-28T22:46:36.013Z,101748.06
2022-08-28T22:49:04.094Z,101739.25
2022-08-28T22:51:34.354Z,101746.31
2022-08-28T22:54:02.264Z,101755.59
2022-08-28T22:56:30.186Z,101749.50
2022-08-28T22:58:58.020Z,101746.53
2022-08-28T23:01:27.926Z,101741.06
2022-08-28T23:03:55.943Z,101742.50
2022-08-28T23:06:23.927Z,101745.63
2022-08-28T23:08:51.887Z,101738.66
2022-08-28T23:11:19.815Z,101740.41
2022-08-28T23:13:48.434Z,101742.88
2022-08-28T23:16:23.636Z,101747.25
2022-08-28T23:19:08.901Z,101747.25
2022-08-28T23:21:40.210Z,101738.53
2022-08-28T23:24:12.800Z,101745.84
2022-08-28T23:26:40.757Z,101745.41
2022-08-28T23:29:08.688Z,101743.75
2022-08-28T23:31:37.108Z,101740.59
2022-08-28T23:34:07.971Z,101745.38
2022-08-28T23:36:37.091Z,101745.38
2022-08-28T23:39:07.496Z,101738.56
2022-08-28T23:41:35.438Z,101733.34
2022-08-28T23:44:08.479Z,101724.38
2022-08-28T23:46:41.687Z,101719.78
2022-08-28T23:49:12.851Z,101714.34
2022-08-28T23:51:40.960Z,101722.31
2022-08-28T23:54:10.716Z,101724.84
2022-08-28T23:56:39.218Z,101725.69
2022-08-28T23:59:07.387Z,101732.63
